Time;durP1;ratioP1;P1;durP2;ratioP2;P2;SDS_P1;SDS_P2;PMS_P1;PMS_P2;Temp;Humidity;BMP_temperature;BMP_pressure;BME280_temperature;BME280_humidity;BME280_pressure;Samples;Min_cycle;Max_cycle;Signal;HPM_P1;HPM_P2
2022/11/21 00:00:15;;;;;;;25.60;11.57;;;-0.80;99.90;;;;;;4988042;28;20205;-68
2022/11/21 00:02:41;;;;;;;17.90;10.93;;;-0.80;99.90;;;;;;4985385;28;20436;-68
2022/11/21 00:05:07;;;;;;;14.97;9.60;;;-0.80;99.90;;;;;;4986862;28;20777;-68
2022/11/21 00:07:32;;;;;;;14.93;8.93;;;-0.80;99.90;;;;;;4986612;28;20231;-68
2022/11/21 00:09:58;;;;;;;17.70;9.83;;;-0.80;99.90;;;;;;4991614;28;20428;-67
2022/11/21 00:12:23;;;;;;;18.40;10.67;;;-0.70;99.90;;;;;;4993757;28;20292;-68
2022/11/21 00:14:49;;;;;;;14.37;9.40;;;-0.70;99.90;;;;;;4994835;28;20173;-68
2022/11/21 00:17:15;;;;;;;20.63;10.53;;;-0.70;99.90;;;;;;4993294;28;20177;-69
2022/11/21 00:19:41;;;;;;;16.17;8.90;;;-0.70;99.90;;;;;;4994174;28;20196;-69
2022/11/21 00:22:06;;;;;;;17.53;10.57;;;-0.60;99.90;;;;;;4992096;28;20782;-69
2022/11/21 00:24:32;;;;;;;19.50;10.07;;;-0.60;99.90;;;;;;4984935;28;20181;-69
2022/11/21 00:26:58;;;;;;;18.23;10.57;;;-0.60;99.90;;;;;;4991126;28;20196;-69
2022/11/21 00:29:23;;;;;;;18.67;10.63;;;-0.60;99.90;;;;;;4993080;28;20233;-69
2022/11/21 00:31:49;;;;;;;13.50;9.47;;;-0.60;99.90;;;;;;4990473;28;20551;-69
2022/11/21 00:34:15;;;;;;;18.57;10.70;;;-0.50;99.90;;;;;;4992492;28;20173;-69
2022/11/21 00:36:41;;;;;;;14.23;8.60;;;-0.50;99.90;;;;;;4989339;28;20184;-69
2022/11/21 00:39:07;;;;;;;16.80;10.43;;;-0.50;99.90;;;;;;4986159;28;20436;-68
2022/11/21 00:41:32;;;;;;;17.47;11.07;;;-0.50;99.90;;;;;;4994357;28;20955;-69
2022/11/21 00:43:58;;;;;;;20.33;12.10;;;-0.50;99.90;;;;;;4990681;28;20207;-69
2022/11/21 00:46:23;;;;;;;22.80;11.30;;;-0.50;99.90;;;;;;4983796;28;20197;-70
2022/11/21 00:48:49;;;;;;;16.13;10.27;;;-0.40;99.90;;;;;;4989252;28;20176;-69
2022/11/21 00:51:14;;;;;;;15.40;9.20;;;-0.40;99.90;;;;;;4992153;28;20180;-69
2022/11/21 00:53:40;;;;;;;15.97;9.00;;;-0.40;99.90;;;;;;4987209;28;20164;-68
2022/11/21 00:56:06;;;;;;;23.73;10.07;;;-0.40;99.90;;;;;;4991807;28;20637;-69
2022/11/21 00:58:32;;;;;;;16.53;10.43;;;-0.40;99.90;;;;;;4985807;28;20416;-69
2022/11/21 01:01:03;;;;;;;16.97;10.77;;;-0.40;99.90;;;;;;4990453;28;20692;-69
2022/11/21 01:03:30;;;;;;;16.70;10.20;;;-0.30;99.90;;;;;;4992477;28;20677;-68
2022/11/21 01:06:03;;;;;;;15.13;10.53;;;-0.30;99.90;;;;;;4989372;28;21055;-68
2022/11/21 01:08:29;;;;;;;16.47;11.17;;;-0.30;99.90;;;;;;4991645;28;20411;-69
2022/11/21 01:10:54;;;;;;;19.83;10.57;;;-0.20;99.90;;;;;;4986402;28;20436;-69
2022/11/21 01:13:20;;;;;;;17.07;10.57;;;-0.20;99.90;;;;;;4993777;28;20180;-69
2022/11/21 01:15:45;;;;;;;16.23;11.23;;;-0.20;99.90;;;;;;4995483;28;20220;-69
2022/11/21 01:18:11;;;;;;;17.23;11.80;;;-0.20;99.90;;;;;;4996313;28;20192;-69
2022/11/21 01:20:40;;;;;;;18.77;11.30;;;-0.30;99.90;;;;;;4996725;28;20212;-69
2022/11/21 01:23:05;;;;;;;15.63;9.70;;;-0.30;99.90;;;;;;4994404;28;20165;-69
2022/11/21 01:25:34;;;;;;;12.60;10.93;;;-0.20;99.90;;;;;;4990114;28;20466;-69
2022/11/21 01:28:00;;;;;;;16.17;11.07;;;-0.30;99.90;;;;;;4985251;28;20170;-69
2022/11/21 01:30:25;;;;;;;13.00;10.63;;;-0.30;99.90;;;;;;4992925;28;20459;-69
2022/11/21 01:32:51;;;;;;;16.47;10.20;;;-0.30;99.90;;;;;;4989054;28;20209;-69
2022/11/21 01:35:17;;;;;;;18.07;12.53;;;-0.20;99.90;;;;;;4984080;28;20173;-69
2022/11/21 01:37:47;;;;;;;16.47;10.43;;;-0.20;99.90;;;;;;4988470;28;20181;-69
2022/11/21 01:40:13;;;;;;;15.70;10.43;;;-0.10;99.90;;;;;;4982615;28;20486;-69
2022/11/21 01:43:11;;;;;;;14.53;10.10;;;-0.10;99.90;;;;;;4986488;28;20503;-69
2022/11/21 01:45:57;;;;;;;13.70;8.87;;;-0.10;99.90;;;;;;4983069;28;20185;-68
2022/11/21 01:48:34;;;;;;;19.70;10.90;;;-0.20;99.90;;;;;;4993719;28;20419;-68
2022/11/21 01:51:25;;;;;;;16.57;11.23;;;-0.20;99.90;;;;;;4982403;28;20460;-68
2022/11/21 01:54:17;;;;;;;14.70;9.40;;;-0.20;99.90;;;;;;4976236;28;20470;-68
2022/11/21 01:56:48;;;;;;;17.70;10.83;;;-0.20;99.90;;;;;;4969722;28;20456;-69
2022/11/21 01:59:20;;;;;;;12.53;9.10;;;-0.10;99.90;;;;;;4986847;28;20490;-68
2022/11/21 02:01:54;;;;;;;16.00;11.10;;;-0.10;99.90;;;;;;4989827;28;20412;-68
2022/11/21 02:04:23;;;;;;;17.00;11.37;;;-0.10;99.90;;;;;;4990663;28;20559;-69
2022/11/21 02:06:49;;;;;;;18.03;11.40;;;-0.10;99.90;;;;;;4988787;28;20452;-70
2022/11/21 02:09:16;;;;;;;19.43;8.63;;;-0.10;99.90;;;;;;4988549;28;20985;-69
2022/11/21 02:11:51;;;;;;;16.53;11.10;;;-0.10;99.90;;;;;;4985043;28;20966;-69
2022/11/21 02:14:17;;;;;;;17.37;11.13;;;-0.10;99.90;;;;;;4988472;28;20797;-69
2022/11/21 02:16:43;;;;;;;16.80;11.03;;;-0.10;99.90;;;;;;4978207;28;20417;-69
2022/11/21 02:19:32;;;;;;;17.07;10.47;;;-0.10;99.90;;;;;;4983987;28;20997;-69
2022/11/21 02:22:10;;;;;;;13.67;10.53;;;-0.10;99.90;;;;;;4984024;28;20958;-69
2022/11/21 02:24:44;;;;;;;19.80;8.90;;;-0.10;99.90;;;;;;4989922;28;20789;-69
2022/11/21 02:27:09;;;;;;;19.03;11.70;;;-0.10;99.90;;;;;;4983005;28;20626;-70
2022/11/21 02:29:36;;;;;;;16.30;11.10;;;-0.20;99.90;;;;;;4989788;28;20582;-69
2022/11/21 02:32:04;;;;;;;16.50;10.90;;;-0.20;99.90;;;;;;4988169;28;20183;-68
2022/11/21 02:34:30;;;;;;;14.57;10.17;;;-0.30;99.90;;;;;;4990486;28;20638;-68
2022/11/21 02:36:56;;;;;;;15.40;10.33;;;-0.20;99.90;;;;;;4984532;28;20535;-69
2022/11/21 02:39:35;;;;;;;16.70;11.87;;;-0.30;99.90;;;;;;4986846;28;20439;-69
2022/11/21 02:42:08;;;;;;;16.70;10.40;;;-0.30;99.90;;;;;;4985864;28;20419;-69
2022/11/21 02:45:06;;;;;;;16.77;11.53;;;-0.30;99.90;;;;;;4984271;28;20792;-68
2022/11/21 02:47:33;;;;;;;19.57;11.13;;;-0.30;99.90;;;;;;4967282;28;20465;-69
2022/11/21 02:50:19;;;;;;;17.93;9.80;;;-0.30;99.90;;;;;;4983701;28;20432;-69
2022/11/21 02:52:44;;;;;;;19.20;11.50;;;-0.30;99.90;;;;;;4989312;28;20479;-70
2022/11/21 02:55:14;;;;;;;19.00;10.77;;;-0.30;99.90;;;;;;4986603;28;20419;-69
2022/11/21 02:57:40;;;;;;;17.20;9.27;;;-0.30;99.90;;;;;;4984121;28;20596;-69
2022/11/21 03:00:07;;;;;;;17.97;10.50;;;-0.20;99.90;;;;;;4984858;28;21201;-70
2022/11/21 03:02:33;;;;;;;13.40;10.30;;;-0.30;99.90;;;;;;4989321;28;20419;-68
2022/11/21 03:04:59;;;;;;;21.83;12.40;;;-0.30;99.90;;;;;;4986314;28;20503;-68
2022/11/21 03:07:24;;;;;;;16.23;11.20;;;-0.30;99.90;;;;;;4989585;28;20485;-68
2022/11/21 03:09:50;;;;;;;16.90;10.60;;;-0.30;99.90;;;;;;4984003;28;20432;-69
2022/11/21 03:12:15;;;;;;;15.10;10.40;;;-0.30;99.90;;;;;;5013878;23;20758;-68
2022/11/21 03:14:41;;;;;;;15.70;11.50;;;-0.30;99.90;;;;;;4971467;28;20207;-68
2022/11/21 03:17:07;;;;;;;18.00;11.70;;;-0.30;99.90;;;;;;4973273;28;20244;-68
2022/11/21 03:19:32;;;;;;;21.30;9.87;;;-0.30;99.90;;;;;;4975070;28;20598;-68
2022/11/21 03:21:58;;;;;;;16.93;11.50;;;-0.30;99.90;;;;;;4975226;28;20224;-69
2022/11/21 03:24:23;;;;;;;14.43;10.13;;;-0.30;99.90;;;;;;4956461;28;20185;-67
2022/11/21 03:26:49;;;;;;;18.27;11.50;;;-0.30;99.90;;;;;;4974789;28;20209;-69
2022/11/21 03:29:14;;;;;;;13.00;8.47;;;-0.30;99.90;;;;;;4975024;28;20583;-68
2022/11/21 03:31:40;;;;;;;23.53;12.43;;;-0.30;99.90;;;;;;4974907;28;20704;-69
2022/11/21 03:34:06;;;;;;;17.17;9.40;;;-0.30;99.90;;;;;;4968160;28;20182;-69
2022/11/21 03:36:31;;;;;;;19.17;11.00;;;-0.30;99.90;;;;;;4974918;28;20180;-67
2022/11/21 03:38:57;;;;;;;18.20;12.40;;;-0.30;99.90;;;;;;4975211;28;20189;-69
2022/11/21 03:41:29;;;;;;;18.27;9.97;;;-0.30;99.90;;;;;;4974349;28;20621;-68
2022/11/21 03:44:00;;;;;;;14.27;8.70;;;-0.30;99.90;;;;;;4967786;28;20428;-69
2022/11/21 03:46:27;;;;;;;17.93;11.40;;;-0.40;99.90;;;;;;4974672;28;20465;-69
2022/11/21 03:48:53;;;;;;;22.53;11.80;;;-0.40;99.90;;;;;;4975061;28;20496;-68
2022/11/21 03:51:19;;;;;;;16.63;11.87;;;-0.40;99.90;;;;;;4974752;28;20495;-68
2022/11/21 03:53:45;;;;;;;16.80;10.83;;;-0.40;99.90;;;;;;4975038;28;20174;-68
2022/11/21 03:56:11;;;;;;;15.10;11.27;;;-0.40;99.90;;;;;;4974563;28;21003;-68
2022/11/21 03:58:36;;;;;;;17.47;10.20;;;-0.40;99.90;;;;;;4974359;28;20593;-69
2022/11/21 04:01:02;;;;;;;13.63;10.10;;;-0.40;99.90;;;;;;4974567;28;20919;-68
2022/11/21 04:03:28;;;;;;;15.90;10.13;;;-0.40;99.90;;;;;;4974477;28;20205;-68
2022/11/21 04:05:53;;;;;;;16.83;10.77;;;-0.40;99.90;;;;;;4975132;28;20860;-68
2022/11/21 04:08:19;;;;;;;18.57;11.40;;;-0.40;99.90;;;;;;4974623;28;20180;-67
2022/11/21 04:10:49;;;;;;;17.30;11.60;;;-0.40;99.90;;;;;;4974102;28;20532;-67
2022/11/21 04:13:14;;;;;;;17.70;11.03;;;-0.30;99.90;;;;;;4974030;28;20284;-67
2022/11/21 04:15:40;;;;;;;13.90;10.50;;;-0.30;99.90;;;;;;4974061;28;20409;-68
2022/11/21 04:18:06;;;;;;;16.87;9.57;;;-0.30;99.90;;;;;;4974636;28;20205;-69
2022/11/21 04:20:32;;;;;;;18.77;11.10;;;-0.30;99.90;;;;;;4974517;28;20472;-68
2022/11/21 04:22:57;;;;;;;20.00;12.13;;;-0.20;99.90;;;;;;4974474;28;20193;-68
2022/11/21 04:25:23;;;;;;;24.13;13.30;;;-0.20;99.90;;;;;;4974328;28;20292;-69
2022/11/21 04:27:48;;;;;;;16.30;10.10;;;-0.20;99.90;;;;;;4973637;28;20233;-68
2022/11/21 04:30:14;;;;;;;19.97;12.77;;;-0.20;99.90;;;;;;4974247;28;20587;-67
2022/11/21 04:32:40;;;;;;;14.20;10.50;;;-0.20;99.90;;;;;;4974051;28;20205;-68
2022/11/21 04:35:06;;;;;;;17.23;11.37;;;-0.30;99.90;;;;;;4974128;28;20299;-69
2022/11/21 04:37:32;;;;;;;16.67;11.60;;;-0.20;99.90;;;;;;4974163;28;20229;-67
2022/11/21 04:39:57;;;;;;;17.37;10.40;;;-0.20;99.90;;;;;;4974216;28;20519;-70
2022/11/21 04:42:23;;;;;;;18.27;11.00;;;-0.20;99.90;;;;;;4974272;28;20193;-68
2022/11/21 04:44:49;;;;;;;13.80;11.47;;;-0.20;99.90;;;;;;4974100;28;20178;-69
2022/11/21 04:47:14;;;;;;;17.70;8.60;;;-0.30;99.90;;;;;;4974110;28;20453;-69
2022/11/21 04:49:40;;;;;;;17.10;12.37;;;-0.30;99.90;;;;;;4973809;28;20240;-68
2022/11/21 04:52:05;;;;;;;20.23;11.97;;;-0.20;99.90;;;;;;4973829;28;20200;-68
2022/11/21 04:54:31;;;;;;;18.20;13.07;;;-0.20;99.90;;;;;;4973581;28;20201;-68
2022/11/21 04:56:57;;;;;;;26.37;13.80;;;-0.20;99.90;;;;;;4973913;28;20177;-68
2022/11/21 04:59:22;;;;;;;18.13;12.23;;;-0.20;99.90;;;;;;4974180;28;20775;-68
2022/11/21 05:01:48;;;;;;;21.67;12.80;;;-0.20;99.90;;;;;;4974414;28;20534;-69
2022/11/21 05:04:13;;;;;;;18.20;12.60;;;-0.20;99.90;;;;;;4974903;28;20197;-68
2022/11/21 05:06:39;;;;;;;22.27;13.03;;;-0.20;99.90;;;;;;4966993;28;20224;-68
2022/11/21 05:09:05;;;;;;;16.03;10.97;;;-0.20;99.90;;;;;;4973835;28;20316;-69
2022/11/21 05:14:14;;;;;;;25.80;12.30;;;-0.20;99.90;;;;;;4973497;28;20251;-70
2022/11/21 05:16:40;;;;;;;17.93;10.07;;;-0.10;99.90;;;;;;4967092;28;20421;-69
2022/11/21 05:19:06;;;;;;;20.60;12.83;;;-0.10;99.90;;;;;;4967323;28;20174;-68
2022/11/21 05:21:32;;;;;;;18.63;14.03;;;-0.10;99.90;;;;;;4973252;28;20177;-68
2022/11/21 05:23:57;;;;;;;21.90;11.17;;;-0.10;99.90;;;;;;4973278;28;20408;-68
2022/11/21 05:26:23;;;;;;;19.60;11.60;;;-0.10;99.90;;;;;;4973016;28;20205;-69
2022/11/21 05:28:48;;;;;;;19.97;14.73;;;-0.10;99.90;;;;;;4972752;28;20293;-68
2022/11/21 05:31:14;;;;;;;19.93;11.97;;;-0.10;99.90;;;;;;4973073;28;20174;-67
2022/11/21 05:33:39;;;;;;;19.80;11.60;;;-0.10;99.90;;;;;;4973128;28;20199;-68
2022/11/21 05:36:05;;;;;;;24.10;13.63;;;-0.10;99.90;;;;;;4972864;28;20182;-69
2022/11/21 05:38:31;;;;;;;17.73;11.10;;;-0.10;99.90;;;;;;4973001;28;20174;-68
2022/11/21 05:40:56;;;;;;;23.83;14.97;;;-0.10;99.90;;;;;;4971559;28;20206;-68
2022/11/21 05:46:06;;;;;;;21.07;12.37;;;0.00;99.90;;;;;;4971219;28;20224;-68
2022/11/21 05:48:33;;;;;;;18.57;12.23;;;0.00;99.90;;;;;;4972810;28;20413;-69
2022/11/21 05:50:58;;;;;;;21.33;13.33;;;0.00;99.90;;;;;;4972316;28;20224;-68
2022/11/21 05:53:24;;;;;;;26.53;13.40;;;0.00;99.90;;;;;;4969301;28;20995;-69
2022/11/21 05:55:50;;;;;;;24.07;13.77;;;0.00;99.90;;;;;;4972736;28;20174;-68
2022/11/21 05:58:15;;;;;;;18.03;12.10;;;0.00;99.90;;;;;;4972728;28;20174;-68
2022/11/21 06:00:41;;;;;;;17.17;11.80;;;0.00;99.90;;;;;;4973227;28;20177;-69
2022/11/21 06:03:29;;;;;;;13.63;10.13;;;-0.10;99.90;;;;;;4973277;28;20764;-68
2022/11/21 06:06:09;;;;;;;21.70;12.30;;;0.00;99.90;;;;;;4973376;28;20174;-68
2022/11/21 06:08:37;;;;;;;15.47;10.90;;;0.00;99.90;;;;;;4969946;28;20434;-68
2022/11/21 06:11:03;;;;;;;17.87;13.07;;;0.00;99.90;;;;;;4972466;28;20860;-69
2022/11/21 06:13:29;;;;;;;19.83;11.80;;;0.10;99.90;;;;;;4971748;28;20962;-69
2022/11/21 06:16:02;;;;;;;21.07;11.30;;;0.10;99.90;;;;;;4971775;28;20421;-69
2022/11/21 06:18:31;;;;;;;17.20;11.33;;;0.10;99.90;;;;;;4972012;28;20173;-69
2022/11/21 06:21:06;;;;;;;21.13;11.93;;;0.10;99.90;;;;;;4972128;28;20409;-68
2022/11/21 06:23:33;;;;;;;17.50;11.50;;;0.10;99.90;;;;;;4971453;28;20439;-68
2022/11/21 06:26:00;;;;;;;18.47;10.27;;;0.10;99.90;;;;;;4971747;28;20456;-68
2022/11/21 06:28:28;;;;;;;16.47;11.67;;;0.00;99.90;;;;;;4971706;28;20947;-68
2022/11/21 06:30:54;;;;;;;22.73;13.07;;;0.00;99.90;;;;;;4962936;28;20493;-69
2022/11/21 06:33:21;;;;;;;19.30;12.63;;;0.00;99.90;;;;;;4971558;28;20555;-68
2022/11/21 06:35:46;;;;;;;17.10;11.60;;;0.00;99.90;;;;;;4951968;28;20232;-68
2022/11/21 06:38:12;;;;;;;16.07;11.23;;;0.00;99.90;;;;;;4971412;28;20409;-69
2022/11/21 06:40:41;;;;;;;18.57;11.63;;;0.00;99.90;;;;;;4954051;28;20248;-71
2022/11/21 06:43:07;;;;;;;18.20;12.47;;;0.00;99.90;;;;;;4966656;28;20190;-68
2022/11/21 06:45:32;;;;;;;19.83;12.67;;;-0.10;99.90;;;;;;4970222;28;20405;-68
2022/11/21 06:48:02;;;;;;;18.77;11.97;;;-0.10;99.90;;;;;;4971058;28;20278;-68
2022/11/21 06:50:29;;;;;;;20.80;11.33;;;-0.10;99.90;;;;;;4971962;28;20547;-69
2022/11/21 06:52:59;;;;;;;16.90;11.37;;;-0.20;99.90;;;;;;4971627;28;20875;-68
2022/11/21 06:55:26;;;;;;;16.50;11.33;;;-0.10;99.90;;;;;;4971601;28;20886;-68
2022/11/21 06:57:52;;;;;;;23.93;13.73;;;-0.20;99.90;;;;;;4949087;28;20797;-68
2022/11/21 07:00:19;;;;;;;19.03;11.90;;;-0.20;99.90;;;;;;4971578;28;20420;-68
2022/11/21 07:02:45;;;;;;;16.63;10.50;;;-0.30;99.90;;;;;;4971384;28;20444;-69
2022/11/21 07:05:11;;;;;;;17.50;12.47;;;-0.30;99.90;;;;;;4971086;28;20417;-67
2022/11/21 07:07:36;;;;;;;19.20;12.10;;;-0.40;99.90;;;;;;4971112;28;20228;-68
2022/11/21 07:10:03;;;;;;;21.27;11.37;;;-0.40;99.90;;;;;;4971337;28;20170;-68
2022/11/21 07:15:13;;;;;;;23.53;12.30;;;-0.50;99.90;;;;;;4971500;28;20427;-67
2022/11/21 07:17:39;;;;;;;23.80;12.00;;;-0.60;99.90;;;;;;4971323;28;20417;-67
2022/11/21 07:20:05;;;;;;;17.87;12.20;;;-0.60;99.90;;;;;;4970895;28;20483;-68
2022/11/21 07:22:30;;;;;;;19.40;12.50;;;-0.60;99.90;;;;;;4963382;28;20301;-68
2022/11/21 07:24:56;;;;;;;22.20;12.10;;;-0.70;99.90;;;;;;4970987;28;20837;-68
2022/11/21 07:27:22;;;;;;;18.50;10.37;;;-0.70;99.90;;;;;;4965207;28;20202;-68
2022/11/21 07:29:47;;;;;;;19.73;13.10;;;-0.60;99.90;;;;;;4970319;28;20672;-68
2022/11/21 07:32:13;;;;;;;18.37;14.37;;;-0.70;99.90;;;;;;4970816;28;20193;-67
2022/11/21 07:34:39;;;;;;;20.67;12.10;;;-0.80;99.90;;;;;;4970870;28;20177;-68
2022/11/21 07:37:05;;;;;;;21.10;11.37;;;-0.70;99.90;;;;;;4970902;28;20789;-69
2022/11/21 07:39:30;;;;;;;19.57;10.37;;;-0.70;99.90;;;;;;4968022;28;20491;-69
2022/11/21 07:41:56;;;;;;;19.37;12.53;;;-0.70;99.90;;;;;;4970775;28;20699;-67
2022/11/21 07:44:21;;;;;;;23.50;12.13;;;-0.70;99.90;;;;;;4969690;28;20359;-68
2022/11/21 07:46:47;;;;;;;23.77;13.30;;;-0.60;99.90;;;;;;4961128;28;20233;-68
2022/11/21 07:49:13;;;;;;;20.33;13.20;;;-0.40;99.90;;;;;;4969490;28;20166;-68
2022/11/21 07:51:38;;;;;;;23.67;13.50;;;-0.30;99.90;;;;;;4970477;28;20307;-68
2022/11/21 07:54:04;;;;;;;28.07;15.57;;;-0.30;99.90;;;;;;4964821;28;20234;-67
2022/11/21 07:56:29;;;;;;;23.20;13.17;;;-0.20;99.90;;;;;;4968404;28;20626;-67
2022/11/21 07:58:55;;;;;;;21.10;12.77;;;0.00;99.90;;;;;;4970550;28;20209;-67
2022/11/21 08:01:21;;;;;;;31.17;15.63;;;-0.10;99.90;;;;;;4970404;28;20225;-68
2022/11/21 08:03:46;;;;;;;28.07;16.20;;;0.00;99.90;;;;;;4973390;28;20676;-67
2022/11/21 08:06:12;;;;;;;23.97;14.73;;;0.00;99.90;;;;;;4973570;28;20280;-68
2022/11/21 08:08:38;;;;;;;22.70;14.03;;;0.20;99.90;;;;;;4973682;28;20228;-68
2022/11/21 08:11:05;;;;;;;27.07;14.57;;;0.20;99.90;;;;;;4973915;28;20419;-68
2022/11/21 08:13:31;;;;;;;23.57;14.40;;;0.20;99.90;;;;;;4973478;28;20553;-68
2022/11/21 08:15:57;;;;;;;26.63;13.37;;;0.10;99.90;;;;;;4973941;28;20417;-68
2022/11/21 08:18:22;;;;;;;26.80;15.80;;;0.20;99.90;;;;;;4973823;28;20432;-68
2022/11/21 08:20:48;;;;;;;22.30;14.50;;;0.30;99.90;;;;;;4973585;28;20181;-68
2022/11/21 08:23:14;;;;;;;23.27;13.90;;;0.30;99.90;;;;;;4973846;28;20190;-68
2022/11/21 08:25:41;;;;;;;25.73;15.23;;;0.20;99.90;;;;;;4973108;28;20170;-67
2022/11/21 08:28:08;;;;;;;22.17;15.00;;;0.10;99.90;;;;;;4977122;28;20588;-67
2022/11/21 08:30:34;;;;;;;37.37;16.33;;;0.20;99.90;;;;;;4971382;28;20512;-67
2022/11/21 08:33:00;;;;;;;30.57;15.40;;;0.20;99.90;;;;;;4973351;28;20532;-67
2022/11/21 08:35:27;;;;;;;30.23;15.33;;;0.10;99.90;;;;;;4973613;28;20863;-68
2022/11/21 08:37:56;;;;;;;22.87;12.80;;;0.00;99.90;;;;;;4971553;28;20409;-67
2022/11/21 08:40:23;;;;;;;25.83;14.03;;;0.10;99.90;;;;;;4973116;28;20425;-67
2022/11/21 08:42:55;;;;;;;27.60;12.23;;;0.10;99.90;;;;;;4973045;28;21030;-67
2022/11/21 08:45:21;;;;;;;23.83;14.80;;;0.10;99.90;;;;;;4973505;28;20423;-67
2022/11/21 08:47:46;;;;;;;21.00;12.33;;;0.10;99.90;;;;;;4972851;28;20480;-68
2022/11/21 08:50:12;;;;;;;22.57;13.57;;;0.10;99.90;;;;;;4975608;28;20166;-67
2022/11/21 08:52:38;;;;;;;25.80;15.03;;;0.10;99.90;;;;;;4973646;28;20300;-69
2022/11/21 08:55:04;;;;;;;23.37;13.33;;;0.10;99.90;;;;;;4973152;28;20252;-67
2022/11/21 08:57:30;;;;;;;25.00;14.27;;;0.10;99.90;;;;;;4973230;28;20256;-68
2022/11/21 08:59:55;;;;;;;24.37;14.87;;;-0.20;99.90;;;;;;4973036;28;20417;-67
2022/11/21 09:02:21;;;;;;;26.33;14.43;;;-0.20;99.90;;;;;;4973293;28;20520;-68
2022/11/21 09:04:47;;;;;;;22.57;13.80;;;-0.20;99.90;;;;;;4971674;28;20185;-66
2022/11/21 09:07:12;;;;;;;22.90;12.60;;;-0.20;99.90;;;;;;4966886;28;20282;-68
2022/11/21 09:09:38;;;;;;;23.27;13.40;;;-0.10;99.90;;;;;;4973046;28;20676;-68
2022/11/21 09:12:03;;;;;;;29.43;13.40;;;-0.20;99.90;;;;;;4972867;28;20224;-69
2022/11/21 09:19:58;;;;;;;23.23;11.20;;;-0.60;99.90;;;;;;4966259;28;20408;-67
2022/11/21 09:22:25;;;;;;;21.70;11.50;;;-0.50;99.90;;;;;;4973051;28;20884;-67
2022/11/21 09:24:50;;;;;;;25.93;11.93;;;-0.40;99.90;;;;;;4972987;28;20495;-67
2022/11/21 09:27:16;;;;;;;22.63;12.07;;;-0.60;99.90;;;;;;4964357;28;20468;-68
2022/11/21 09:29:42;;;;;;;21.23;11.63;;;-0.50;99.90;;;;;;4964227;28;20300;-67
2022/11/21 09:32:07;;;;;;;21.53;11.80;;;-0.40;99.90;;;;;;4957200;28;20208;-68
2022/11/21 09:34:33;;;;;;;16.87;10.50;;;-0.20;99.90;;;;;;4969931;28;20169;-68
2022/11/21 09:36:58;;;;;;;19.87;9.97;;;-0.50;99.90;;;;;;4971568;28;20649;-68
2022/11/21 09:39:24;;;;;;;27.70;11.63;;;-0.60;99.90;;;;;;4963533;28;20216;-68
2022/11/21 09:42:02;;;;;;;18.83;10.43;;;-0.70;99.90;;;;;;4968808;28;20201;-69
2022/11/21 09:44:53;;;;;;;17.33;11.07;;;-0.60;99.90;;;;;;4969525;28;20420;-69
2022/11/21 09:47:31;;;;;;;28.57;10.70;;;-0.40;99.90;;;;;;4966761;28;20460;-68
2022/11/21 09:50:04;;;;;;;17.43;9.93;;;-0.60;99.90;;;;;;4969564;28;20410;-68
2022/11/21 09:52:45;;;;;;;25.20;10.23;;;-0.60;99.90;;;;;;4969921;28;20435;-68
2022/11/21 09:55:34;;;;;;;20.50;9.57;;;-0.90;99.90;;;;;;4966003;28;20420;-68
2022/11/21 09:58:03;;;;;;;12.47;8.93;;;-0.60;99.90;;;;;;4961607;28;20409;-68
2022/11/21 10:00:29;;;;;;;16.83;9.37;;;-0.50;99.90;;;;;;4971439;28;20435;-67
2022/11/21 10:02:56;;;;;;;15.43;8.70;;;-0.60;99.90;;;;;;4970775;28;20536;-68
2022/11/21 10:05:46;;;;;;;25.33;12.00;;;-0.70;99.90;;;;;;4971948;28;20413;-67
2022/11/21 10:08:48;;;;;;;29.17;9.70;;;-1.00;99.90;;;;;;4969095;28;20432;-68
2022/11/21 10:11:29;;;;;;;14.80;7.80;;;-1.00;99.90;;;;;;4970727;28;20419;-67
2022/11/21 10:14:07;;;;;;;17.10;7.80;;;-0.80;99.90;;;;;;4961708;28;20430;-68
2022/11/21 10:16:57;;;;;;;18.30;9.27;;;-0.70;99.90;;;;;;4971707;28;20920;-67
2022/11/21 10:19:33;;;;;;;18.53;10.23;;;-0.90;99.90;;;;;;4971743;28;21136;-75
2022/11/21 10:22:29;;;;;;;20.67;10.17;;;-1.00;99.90;;;;;;4967639;28;20437;-68
2022/11/21 10:25:01;;;;;;;15.60;8.20;;;-1.00;99.90;;;;;;4954153;28;20413;-66
2022/11/21 10:27:46;;;;;;;14.03;7.70;;;-1.00;99.90;;;;;;4967991;28;20832;-68
2022/11/21 10:30:18;;;;;;;15.87;8.03;;;-1.10;99.90;;;;;;4971930;28;20393;-69
2022/11/21 10:32:48;;;;;;;13.47;7.47;;;-1.20;99.90;;;;;;4972028;28;20429;-67
2022/11/21 10:35:21;;;;;;;27.20;10.37;;;-1.20;99.90;;;;;;4968634;28;20405;-68
2022/11/21 10:37:59;;;;;;;15.40;8.80;;;-0.90;99.90;;;;;;4971868;28;21404;-69
2022/11/21 10:40:32;;;;;;;15.73;8.67;;;-0.70;99.90;;;;;;4971773;28;20451;-69
2022/11/21 10:46:02;;;;;;;18.40;8.63;;;-0.70;99.90;;;;;;4967141;28;20439;-68
2022/11/21 10:48:28;;;;;;;19.70;8.70;;;-0.80;99.90;;;;;;4972006;28;20445;-69
2022/11/21 10:51:04;;;;;;;13.17;8.73;;;-0.90;99.90;;;;;;4972010;28;20174;-68
2022/11/21 10:56:18;;;;;;;9.57;6.83;;;-1.00;99.90;;;;;;4971759;28;20488;-68
2022/11/21 10:58:46;;;;;;;11.17;7.80;;;-0.70;99.90;;;;;;4971472;28;20424;-69
2022/11/21 11:01:19;;;;;;;13.43;6.57;;;-0.60;99.90;;;;;;4971735;28;20761;-68
2022/11/21 11:03:44;;;;;;;14.13;6.17;;;-0.50;99.90;;;;;;4963234;28;20829;-68
2022/11/21 11:06:10;;;;;;;10.50;7.40;;;-0.60;99.90;;;;;;4971574;28;20499;-69
2022/11/21 11:08:51;;;;;;;12.20;4.97;;;-0.80;99.90;;;;;;4971736;28;20169;-69
2022/11/21 11:11:21;;;;;;;7.73;6.23;;;-0.90;99.90;;;;;;4971588;28;20173;-73
2022/11/21 11:14:00;;;;;;;15.07;8.10;;;-0.70;99.90;;;;;;4971296;28;20453;-68
2022/11/21 11:16:28;;;;;;;12.47;8.27;;;-0.70;99.90;;;;;;4971542;28;20413;-68
2022/11/21 11:19:00;;;;;;;12.43;8.23;;;-0.60;99.90;;;;;;4970557;28;20415;-69
2022/11/21 11:21:40;;;;;;;15.60;7.80;;;-0.50;99.90;;;;;;4971660;28;20417;-68
2022/11/21 11:24:08;;;;;;;13.00;7.50;;;-0.50;99.90;;;;;;4968031;28;20424;-69
2022/11/21 11:26:51;;;;;;;18.50;8.27;;;-0.40;99.90;;;;;;4970858;28;20850;-69
2022/11/21 11:29:18;;;;;;;11.97;7.33;;;-0.40;99.90;;;;;;4966390;28;20401;-68
2022/11/21 11:32:03;;;;;;;13.37;9.40;;;-0.40;99.90;;;;;;4971398;28;20426;-69
2022/11/21 11:34:35;;;;;;;14.23;8.07;;;-0.40;99.90;;;;;;4971814;28;20712;-68
2022/11/21 11:37:39;;;;;;;15.40;7.03;;;-0.60;99.90;;;;;;4971333;28;20409;-69
2022/11/21 11:40:17;;;;;;;14.67;7.40;;;-0.20;99.90;;;;;;4953029;28;20824;-69
2022/11/21 11:48:48;;;;;;;15.00;11.10;;;-0.20;99.90;;;;;;4967863;28;20976;-68
2022/11/21 11:51:45;;;;;;;16.30;9.60;;;-0.10;99.90;;;;;;4974915;28;20433;-68
2022/11/21 11:54:20;;;;;;;14.67;9.63;;;-0.10;99.90;;;;;;4975188;28;20497;-68
2022/11/21 11:56:46;;;;;;;11.23;9.10;;;0.10;99.90;;;;;;4975332;28;20487;-69
2022/11/21 11:59:19;;;;;;;13.90;9.63;;;0.20;99.90;;;;;;4974722;28;20504;-69
2022/11/21 12:02:20;;;;;;;13.87;10.60;;;0.10;99.90;;;;;;4974640;28;20475;-68
2022/11/21 12:05:03;;;;;;;17.40;10.70;;;0.20;99.90;;;;;;4963009;28;20761;-70
2022/11/21 12:07:40;;;;;;;14.43;9.47;;;0.30;99.90;;;;;;4974964;28;20467;-68
2022/11/21 12:12:05;;;;;;;12.87;9.17;;;0.40;99.90;;;;;;4975860;28;20412;-69
2022/11/21 12:13:30;;;;;;;12.40;9.57;;;0.40;99.90;;;;;;4965073;28;20519;-68
2022/11/21 12:16:01;;;;;;;17.97;10.57;;;0.40;99.90;;;;;;4967256;28;20413;-68
2022/11/21 12:18:46;;;;;;;19.10;13.00;;;0.20;99.90;;;;;;4974098;28;21320;-68
2022/11/21 12:21:15;;;;;;;19.00;10.43;;;0.40;99.90;;;;;;4969197;28;20815;-68
2022/11/21 12:23:57;;;;;;;16.27;9.00;;;0.10;99.90;;;;;;4967502;28;20425;-70
2022/11/21 12:26:43;;;;;;;14.20;10.03;;;0.00;99.90;;;;;;4974343;28;20967;-68
2022/11/21 12:29:25;;;;;;;15.80;9.90;;;-0.10;99.90;;;;;;4974086;28;20405;-69
2022/11/21 12:32:05;;;;;;;18.43;11.80;;;-0.10;99.90;;;;;;4974169;28;20428;-68
2022/11/21 12:35:08;;;;;;;16.90;12.07;;;-0.10;99.90;;;;;;4974116;28;20401;-67
2022/11/21 12:37:40;;;;;;;18.13;10.83;;;-0.30;99.90;;;;;;4905922;29;20434;-68
2022/11/21 12:40:14;;;;;;;11.63;9.33;;;-0.30;99.90;;;;;;4964617;28;20417;-66
2022/11/21 12:42:48;;;;;;;14.90;9.83;;;-0.30;99.90;;;;;;4972989;28;20439;-69
2022/11/21 12:45:32;;;;;;;15.63;9.40;;;-0.10;99.90;;;;;;4969344;28;20854;-68
2022/11/21 12:54:32;;;;;;;14.60;9.00;;;-0.20;99.90;;;;;;4973930;28;20400;-68
2022/11/21 12:57:30;;;;;;;11.90;8.93;;;-0.20;99.90;;;;;;4951972;28;20429;-68
2022/11/21 13:00:22;;;;;;;12.40;7.50;;;-0.10;99.90;;;;;;4971140;28;20424;-68
2022/11/21 13:03:06;;;;;;;10.90;6.50;;;-0.20;99.90;;;;;;4972236;28;20943;-69
2022/11/21 13:05:36;;;;;;;14.30;7.93;;;-0.30;99.90;;;;;;4973737;28;20923;-68
2022/11/21 13:08:17;;;;;;;10.60;8.07;;;-0.30;99.90;;;;;;4973767;28;20613;-69
2022/11/21 13:11:57;;;;;;;12.77;7.93;;;-0.30;99.90;;;;;;4972527;28;20472;-67
2022/11/21 13:13:45;;;;;;;11.97;7.43;;;-0.30;99.90;;;;;;4976329;28;20540;-69
2022/11/21 13:16:35;;;;;;;12.67;8.37;;;-0.30;99.90;;;;;;4974653;28;20428;-68